sensor_id;sensor_type;location;lat;lon;timestamp;P1;durP1;ratioP1;P2;durP2;ratioP2
22770;SDS011;11552;50.786;4.332;2022-10-19T00:01:51;15.25;;;4.05;;
22770;SDS011;11552;50.786;4.332;2022-10-19T00:04:17;12.65;;;3.92;;
22770;SDS011;11552;50.786;4.332;2022-10-19T00:06:43;12.52;;;4.10;;
22770;SDS011;11552;50.786;4.332;2022-10-19T00:09:14;11.73;;;3.60;;
22770;SDS011;11552;50.786;4.332;2022-10-19T00:11:43;17.25;;;4.00;;
22770;SDS011;11552;50.786;4.332;2022-10-19T00:14:12;12.90;;;4.00;;
22770;SDS011;11552;50.786;4.332;2022-10-19T00:16:40;14.82;;;4.30;;
22770;SDS011;11552;50.786;4.332;2022-10-19T00:19:07;11.35;;;4.20;;
22770;SDS011;11552;50.786;4.332;2022-10-19T00:21:36;12.57;;;4.10;;
22770;SDS011;11552;50.786;4.332;2022-10-19T00:24:03;9.73;;;3.60;;
22770;SDS011;11552;50.786;4.332;2022-10-19T00:26:29;12.30;;;4.40;;
22770;SDS011;11552;50.786;4.332;2022-10-19T00:28:55;10.95;;;4.05;;
22770;SDS011;11552;50.786;4.332;2022-10-19T00:31:22;12.02;;;4.18;;
22770;SDS011;11552;50.786;4.332;2022-10-19T00:33:48;13.40;;;4.72;;
22770;SDS011;11552;50.786;4.332;2022-10-19T00:36:47;12.40;;;4.10;;
22770;SDS011;11552;50.786;4.332;2022-10-19T00:39:09;11.90;;;4.43;;
22770;SDS011;11552;50.786;4.332;2022-10-19T00:41:36;13.95;;;4.47;;
22770;SDS011;11552;50.786;4.332;2022-10-19T00:44:53;11.15;;;4.47;;
22770;SDS011;11552;50.786;4.332;2022-10-19T00:47:02;10.52;;;4.22;;
22770;SDS011;11552;50.786;4.332;2022-10-19T00:49:31;10.55;;;4.30;;
22770;SDS011;11552;50.786;4.332;2022-10-19T00:52:03;16.33;;;4.60;;
22770;SDS011;11552;50.786;4.332;2022-10-19T00:54:32;12.90;;;4.97;;
22770;SDS011;11552;50.786;4.332;2022-10-19T00:57:02;10.98;;;4.88;;
22770;SDS011;11552;50.786;4.332;2022-10-19T00:59:28;15.48;;;4.60;;
22770;SDS011;11552;50.786;4.332;2022-10-19T01:01:58;14.98;;;5.13;;
22770;SDS011;11552;50.786;4.332;2022-10-19T01:04:26;11.13;;;4.90;;
22770;SDS011;11552;50.786;4.332;2022-10-19T01:06:54;16.65;;;5.22;;
22770;SDS011;11552;50.786;4.332;2022-10-19T01:09:21;16.95;;;5.65;;
22770;SDS011;11552;50.786;4.332;2022-10-19T01:14:37;19.50;;;5.97;;
22770;SDS011;11552;50.786;4.332;2022-10-19T01:30:49;12.50;;;4.80;;
22770;SDS011;11552;50.786;4.332;2022-10-19T01:33:26;11.68;;;5.15;;
22770;SDS011;11552;50.786;4.332;2022-10-19T01:38:35;10.80;;;5.35;;
22770;SDS011;11552;50.786;4.332;2022-10-19T01:43:42;16.95;;;5.57;;
22770;SDS011;11552;50.786;4.332;2022-10-19T01:49:02;15.07;;;5.70;;
22770;SDS011;11552;50.786;4.332;2022-10-19T01:51:51;12.55;;;6.03;;
22770;SDS011;11552;50.786;4.332;2022-10-19T01:54:29;11.25;;;5.30;;
22770;SDS011;11552;50.786;4.332;2022-10-19T01:56:59;17.92;;;5.45;;
22770;SDS011;11552;50.786;4.332;2022-10-19T01:59:27;16.20;;;6.00;;
22770;SDS011;11552;50.786;4.332;2022-10-19T02:01:54;16.88;;;5.53;;
22770;SDS011;11552;50.786;4.332;2022-10-19T02:04:21;12.35;;;5.30;;
22770;SDS011;11552;50.786;4.332;2022-10-19T02:06:50;13.88;;;5.50;;
22770;SDS011;11552;50.786;4.332;2022-10-19T02:09:18;11.07;;;5.65;;
22770;SDS011;11552;50.786;4.332;2022-10-19T02:11:55;13.30;;;5.95;;
22770;SDS011;11552;50.786;4.332;2022-10-19T02:14:25;18.08;;;5.50;;
22770;SDS011;11552;50.786;4.332;2022-10-19T02:17:13;13.73;;;5.53;;
22770;SDS011;11552;50.786;4.332;2022-10-19T02:19:43;15.50;;;5.57;;
22770;SDS011;11552;50.786;4.332;2022-10-19T02:22:09;9.85;;;5.32;;
22770;SDS011;11552;50.786;4.332;2022-10-19T02:24:36;13.63;;;5.57;;
22770;SDS011;11552;50.786;4.332;2022-10-19T02:27:02;14.38;;;6.32;;
22770;SDS011;11552;50.786;4.332;2022-10-19T02:29:30;18.50;;;6.68;;
22770;SDS011;11552;50.786;4.332;2022-10-19T02:31:56;12.30;;;5.75;;
22770;SDS011;11552;50.786;4.332;2022-10-19T02:34:22;13.27;;;5.63;;
22770;SDS011;11552;50.786;4.332;2022-10-19T02:36:48;15.80;;;5.95;;
22770;SDS011;11552;50.786;4.332;2022-10-19T02:39:14;13.40;;;6.10;;
22770;SDS011;11552;50.786;4.332;2022-10-19T02:44:41;14.40;;;5.63;;
22770;SDS011;11552;50.786;4.332;2022-10-19T02:47:21;13.05;;;6.28;;
22770;SDS011;11552;50.786;4.332;2022-10-19T02:49:51;20.05;;;5.95;;
22770;SDS011;11552;50.786;4.332;2022-10-19T02:52:17;18.70;;;6.90;;
22770;SDS011;11552;50.786;4.332;2022-10-19T02:54:43;14.85;;;6.35;;
22770;SDS011;11552;50.786;4.332;2022-10-19T02:57:19;14.63;;;5.85;;
22770;SDS011;11552;50.786;4.332;2022-10-19T02:59:47;14.13;;;6.35;;
22770;SDS011;11552;50.786;4.332;2022-10-19T03:02:14;15.43;;;5.78;;
22770;SDS011;11552;50.786;4.332;2022-10-19T03:04:41;14.35;;;6.53;;
22770;SDS011;11552;50.786;4.332;2022-10-19T03:07:08;17.00;;;6.75;;
22770;SDS011;11552;50.786;4.332;2022-10-19T03:09:35;15.35;;;6.75;;
22770;SDS011;11552;50.786;4.332;2022-10-19T03:12:01;11.98;;;6.13;;
22770;SDS011;11552;50.786;4.332;2022-10-19T03:14:27;13.13;;;6.50;;
22770;SDS011;11552;50.786;4.332;2022-10-19T03:16:52;20.05;;;6.38;;
22770;SDS011;11552;50.786;4.332;2022-10-19T03:19:18;16.75;;;7.18;;
22770;SDS011;11552;50.786;4.332;2022-10-19T03:21:43;15.25;;;6.93;;
22770;SDS011;11552;50.786;4.332;2022-10-19T03:24:09;15.63;;;6.57;;
22770;SDS011;11552;50.786;4.332;2022-10-19T03:26:35;21.15;;;7.32;;
22770;SDS011;11552;50.786;4.332;2022-10-19T03:29:01;12.40;;;6.07;;
22770;SDS011;11552;50.786;4.332;2022-10-19T03:31:27;12.80;;;6.45;;
22770;SDS011;11552;50.786;4.332;2022-10-19T03:33:52;17.88;;;6.60;;
22770;SDS011;11552;50.786;4.332;2022-10-19T03:36:19;13.73;;;6.50;;
22770;SDS011;11552;50.786;4.332;2022-10-19T03:38:45;19.23;;;6.88;;
22770;SDS011;11552;50.786;4.332;2022-10-19T03:41:13;16.23;;;7.40;;
22770;SDS011;11552;50.786;4.332;2022-10-19T03:43:39;20.90;;;6.90;;
22770;SDS011;11552;50.786;4.332;2022-10-19T03:46:27;16.65;;;7.43;;
22770;SDS011;11552;50.786;4.332;2022-10-19T03:48:53;13.50;;;6.95;;
22770;SDS011;11552;50.786;4.332;2022-10-19T03:51:20;18.98;;;7.18;;
22770;SDS011;11552;50.786;4.332;2022-10-19T03:53:50;23.30;;;8.00;;
22770;SDS011;11552;50.786;4.332;2022-10-19T03:56:19;23.92;;;8.07;;
22770;SDS011;11552;50.786;4.332;2022-10-19T03:58:47;23.38;;;7.93;;
22770;SDS011;11552;50.786;4.332;2022-10-19T04:01:18;19.48;;;7.88;;
22770;SDS011;11552;50.786;4.332;2022-10-19T04:03:45;19.83;;;7.80;;
22770;SDS011;11552;50.786;4.332;2022-10-19T04:06:16;14.77;;;7.50;;
22770;SDS011;11552;50.786;4.332;2022-10-19T04:08:43;23.98;;;8.13;;
22770;SDS011;11552;50.786;4.332;2022-10-19T04:11:12;15.57;;;7.70;;
22770;SDS011;11552;50.786;4.332;2022-10-19T04:13:38;18.38;;;8.23;;
22770;SDS011;11552;50.786;4.332;2022-10-19T04:16:04;22.90;;;9.00;;
22770;SDS011;11552;50.786;4.332;2022-10-19T04:18:30;18.42;;;8.27;;
22770;SDS011;11552;50.786;4.332;2022-10-19T04:20:56;26.88;;;9.82;;
22770;SDS011;11552;50.786;4.332;2022-10-19T04:23:25;22.58;;;8.65;;
22770;SDS011;11552;50.786;4.332;2022-10-19T04:25:57;17.25;;;8.77;;
22770;SDS011;11552;50.786;4.332;2022-10-19T04:28:24;17.88;;;8.10;;
22770;SDS011;11552;50.786;4.332;2022-10-19T04:30:50;21.88;;;8.85;;
22770;SDS011;11552;50.786;4.332;2022-10-19T04:33:16;21.48;;;8.63;;
22770;SDS011;11552;50.786;4.332;2022-10-19T04:35:42;19.33;;;8.50;;
22770;SDS011;11552;50.786;4.332;2022-10-19T04:38:07;14.35;;;8.93;;
22770;SDS011;11552;50.786;4.332;2022-10-19T04:40:34;19.33;;;8.90;;
22770;SDS011;11552;50.786;4.332;2022-10-19T04:43:00;26.25;;;8.52;;
22770;SDS011;11552;50.786;4.332;2022-10-19T04:45:26;16.88;;;8.90;;
22770;SDS011;11552;50.786;4.332;2022-10-19T04:47:53;20.50;;;9.20;;
22770;SDS011;11552;50.786;4.332;2022-10-19T04:50:20;23.85;;;8.90;;
22770;SDS011;11552;50.786;4.332;2022-10-19T04:52:47;23.33;;;9.80;;
22770;SDS011;11552;50.786;4.332;2022-10-19T04:55:13;13.90;;;8.82;;
22770;SDS011;11552;50.786;4.332;2022-10-19T04:57:38;15.30;;;9.00;;
22770;SDS011;11552;50.786;4.332;2022-10-19T05:00:04;16.20;;;9.18;;
22770;SDS011;11552;50.786;4.332;2022-10-19T05:02:30;24.13;;;9.68;;
22770;SDS011;11552;50.786;4.332;2022-10-19T05:04:56;22.25;;;10.48;;
22770;SDS011;11552;50.786;4.332;2022-10-19T05:07:22;22.38;;;10.00;;
22770;SDS011;11552;50.786;4.332;2022-10-19T05:09:47;20.15;;;10.63;;
22770;SDS011;11552;50.786;4.332;2022-10-19T05:12:13;21.25;;;10.40;;
22770;SDS011;11552;50.786;4.332;2022-10-19T05:14:38;22.27;;;11.10;;
22770;SDS011;11552;50.786;4.332;2022-10-19T05:17:04;21.60;;;9.65;;
22770;SDS011;11552;50.786;4.332;2022-10-19T05:19:30;19.98;;;10.80;;
22770;SDS011;11552;50.786;4.332;2022-10-19T05:21:55;19.27;;;11.23;;
22770;SDS011;11552;50.786;4.332;2022-10-19T05:24:21;21.33;;;11.07;;
22770;SDS011;11552;50.786;4.332;2022-10-19T05:26:47;19.90;;;10.88;;
22770;SDS011;11552;50.786;4.332;2022-10-19T05:29:13;24.17;;;11.13;;
22770;SDS011;11552;50.786;4.332;2022-10-19T05:31:39;21.02;;;10.75;;
22770;SDS011;11552;50.786;4.332;2022-10-19T05:34:04;23.98;;;11.85;;
22770;SDS011;11552;50.786;4.332;2022-10-19T05:36:32;21.63;;;11.23;;
22770;SDS011;11552;50.786;4.332;2022-10-19T05:39:02;21.33;;;11.07;;
22770;SDS011;11552;50.786;4.332;2022-10-19T05:41:32;28.67;;;11.80;;
22770;SDS011;11552;50.786;4.332;2022-10-19T05:43:59;27.20;;;12.05;;
22770;SDS011;11552;50.786;4.332;2022-10-19T05:46:26;29.10;;;11.88;;
22770;SDS011;11552;50.786;4.332;2022-10-19T05:48:54;23.45;;;11.88;;
22770;SDS011;11552;50.786;4.332;2022-10-19T05:51:21;17.90;;;11.23;;
22770;SDS011;11552;50.786;4.332;2022-10-19T05:53:48;21.95;;;11.55;;
22770;SDS011;11552;50.786;4.332;2022-10-19T05:56:15;23.20;;;11.88;;
22770;SDS011;11552;50.786;4.332;2022-10-19T05:58:43;17.80;;;10.88;;
22770;SDS011;11552;50.786;4.332;2022-10-19T06:01:09;21.02;;;12.52;;
22770;SDS011;11552;50.786;4.332;2022-10-19T06:03:35;21.88;;;11.93;;
22770;SDS011;11552;50.786;4.332;2022-10-19T06:06:01;25.45;;;13.50;;
22770;SDS011;11552;50.786;4.332;2022-10-19T06:08:28;24.25;;;13.48;;
22770;SDS011;11552;50.786;4.332;2022-10-19T06:11:03;21.80;;;12.93;;
22770;SDS011;11552;50.786;4.332;2022-10-19T06:13:31;28.25;;;13.60;;
22770;SDS011;11552;50.786;4.332;2022-10-19T06:15:57;26.10;;;14.15;;
22770;SDS011;11552;50.786;4.332;2022-10-19T06:18:23;34.47;;;14.95;;
22770;SDS011;11552;50.786;4.332;2022-10-19T06:20:50;26.35;;;13.73;;
22770;SDS011;11552;50.786;4.332;2022-10-19T06:23:16;25.52;;;14.20;;
22770;SDS011;11552;50.786;4.332;2022-10-19T06:25:42;23.52;;;13.95;;
22770;SDS011;11552;50.786;4.332;2022-10-19T06:28:08;22.85;;;13.95;;
22770;SDS011;11552;50.786;4.332;2022-10-19T06:30:39;32.40;;;14.88;;
22770;SDS011;11552;50.786;4.332;2022-10-19T06:33:05;26.95;;;15.35;;
22770;SDS011;11552;50.786;4.332;2022-10-19T06:35:31;24.58;;;13.98;;
22770;SDS011;11552;50.786;4.332;2022-10-19T06:37:57;24.02;;;14.00;;
22770;SDS011;11552;50.786;4.332;2022-10-19T06:40:23;30.42;;;13.95;;
22770;SDS011;11552;50.786;4.332;2022-10-19T06:42:49;31.30;;;14.75;;
22770;SDS011;11552;50.786;4.332;2022-10-19T06:45:15;23.73;;;13.80;;
22770;SDS011;11552;50.786;4.332;2022-10-19T06:47:41;26.13;;;15.38;;
22770;SDS011;11552;50.786;4.332;2022-10-19T06:50:06;24.38;;;13.00;;
22770;SDS011;11552;50.786;4.332;2022-10-19T06:52:32;23.23;;;13.88;;
22770;SDS011;11552;50.786;4.332;2022-10-19T06:54:59;20.83;;;13.90;;
22770;SDS011;11552;50.786;4.332;2022-10-19T06:57:25;21.92;;;12.68;;
22770;SDS011;11552;50.786;4.332;2022-10-19T06:59:50;25.38;;;13.75;;
22770;SDS011;11552;50.786;4.332;2022-10-19T07:02:16;24.85;;;14.40;;
22770;SDS011;11552;50.786;4.332;2022-10-19T07:04:42;26.40;;;13.23;;
22770;SDS011;11552;50.786;4.332;2022-10-19T07:07:08;25.02;;;13.25;;
22770;SDS011;11552;50.786;4.332;2022-10-19T07:09:33;19.80;;;13.10;;
22770;SDS011;11552;50.786;4.332;2022-10-19T07:11:59;23.13;;;15.07;;
22770;SDS011;11552;50.786;4.332;2022-10-19T07:14:25;24.13;;;14.18;;
22770;SDS011;11552;50.786;4.332;2022-10-19T07:16:52;24.27;;;15.13;;
22770;SDS011;11552;50.786;4.332;2022-10-19T07:19:19;25.67;;;14.40;;
22770;SDS011;11552;50.786;4.332;2022-10-19T07:21:49;34.83;;;15.25;;
22770;SDS011;11552;50.786;4.332;2022-10-19T07:24:15;20.38;;;13.60;;
22770;SDS011;11552;50.786;4.332;2022-10-19T07:26:41;23.98;;;13.70;;
22770;SDS011;11552;50.786;4.332;2022-10-19T07:29:07;24.20;;;14.10;;
22770;SDS011;11552;50.786;4.332;2022-10-19T07:31:33;21.23;;;13.15;;
22770;SDS011;11552;50.786;4.332;2022-10-19T07:34:00;25.27;;;13.25;;
22770;SDS011;11552;50.786;4.332;2022-10-19T07:36:28;22.45;;;14.15;;
22770;SDS011;11552;50.786;4.332;2022-10-19T07:38:55;35.85;;;14.10;;
22770;SDS011;11552;50.786;4.332;2022-10-19T07:41:22;20.00;;;13.32;;
22770;SDS011;11552;50.786;4.332;2022-10-19T07:43:49;24.30;;;13.10;;
22770;SDS011;11552;50.786;4.332;2022-10-19T07:46:20;25.63;;;13.45;;
22770;SDS011;11552;50.786;4.332;2022-10-19T07:48:48;22.40;;;13.23;;
22770;SDS011;11552;50.786;4.332;2022-10-19T07:51:14;19.58;;;11.55;;
22770;SDS011;11552;50.786;4.332;2022-10-19T07:53:41;20.88;;;12.05;;
22770;SDS011;11552;50.786;4.332;2022-10-19T07:56:12;19.52;;;11.18;;
22770;SDS011;11552;50.786;4.332;2022-10-19T07:58:39;22.48;;;12.05;;
22770;SDS011;11552;50.786;4.332;2022-10-19T08:01:06;24.35;;;12.65;;
22770;SDS011;11552;50.786;4.332;2022-10-19T08:03:35;22.67;;;13.15;;
22770;SDS011;11552;50.786;4.332;2022-10-19T08:06:02;20.02;;;12.73;;
22770;SDS011;11552;50.786;4.332;2022-10-19T08:08:33;24.27;;;12.90;;
22770;SDS011;11552;50.786;4.332;2022-10-19T08:11:34;33.55;;;11.35;;
22770;SDS011;11552;50.786;4.332;2022-10-19T08:13:54;22.38;;;11.48;;
22770;SDS011;11552;50.786;4.332;2022-10-19T08:16:24;22.20;;;10.70;;
22770;SDS011;11552;50.786;4.332;2022-10-19T08:18:50;16.65;;;10.35;;
22770;SDS011;11552;50.786;4.332;2022-10-19T08:21:19;17.85;;;9.85;;
22770;SDS011;11552;50.786;4.332;2022-10-19T08:23:45;17.05;;;10.13;;
22770;SDS011;11552;50.786;4.332;2022-10-19T08:26:10;16.38;;;9.52;;
22770;SDS011;11552;50.786;4.332;2022-10-19T08:28:36;15.50;;;9.20;;
22770;SDS011;11552;50.786;4.332;2022-10-19T08:31:10;16.13;;;9.07;;
22770;SDS011;11552;50.786;4.332;2022-10-19T08:33:37;13.13;;;8.90;;
22770;SDS011;11552;50.786;4.332;2022-10-19T08:36:04;16.95;;;8.32;;
22770;SDS011;11552;50.786;4.332;2022-10-19T08:38:30;17.25;;;8.15;;
22770;SDS011;11552;50.786;4.332;2022-10-19T08:40:56;15.10;;;8.40;;
22770;SDS011;11552;50.786;4.332;2022-10-19T08:43:33;16.02;;;8.00;;
22770;SDS011;11552;50.786;4.332;2022-10-19T08:46:16;13.65;;;7.40;;
22770;SDS011;11552;50.786;4.332;2022-10-19T08:48:48;13.52;;;7.82;;
22770;SDS011;11552;50.786;4.332;2022-10-19T08:51:15;14.05;;;7.68;;
22770;SDS011;11552;50.786;4.332;2022-10-19T09:01:32;13.05;;;7.20;;
22770;SDS011;11552;50.786;4.332;2022-10-19T09:07:28;13.02;;;7.40;;
22770;SDS011;11552;50.786;4.332;2022-10-19T09:09:39;17.00;;;8.00;;
22770;SDS011;11552;50.786;4.332;2022-10-19T09:12:08;18.25;;;9.00;;
22770;SDS011;11552;50.786;4.332;2022-10-19T09:14:42;14.73;;;7.35;;
22770;SDS011;11552;50.786;4.332;2022-10-19T09:17:27;14.45;;;7.30;;
22770;SDS011;11552;50.786;4.332;2022-10-19T09:19:55;14.68;;;7.40;;
22770;SDS011;11552;50.786;4.332;2022-10-19T09:22:24;14.20;;;7.07;;
22770;SDS011;11552;50.786;4.332;2022-10-19T09:25:09;13.55;;;6.65;;
22770;SDS011;11552;50.786;4.332;2022-10-19T09:32:47;16.40;;;7.90;;
22770;SDS011;11552;50.786;4.332;2022-10-19T09:35:29;18.73;;;8.30;;
22770;SDS011;11552;50.786;4.332;2022-10-19T09:38:00;14.40;;;7.38;;
22770;SDS011;11552;50.786;4.332;2022-10-19T09:40:29;18.25;;;7.72;;
22770;SDS011;11552;50.786;4.332;2022-10-19T09:42:55;12.43;;;7.38;;
22770;SDS011;11552;50.786;4.332;2022-10-19T09:45:27;13.40;;;7.22;;
22770;SDS011;11552;50.786;4.332;2022-10-19T09:47:56;12.88;;;7.45;;
22770;SDS011;11552;50.786;4.332;2022-10-19T09:51:40;16.83;;;8.00;;
22770;SDS011;11552;50.786;4.332;2022-10-19T09:54:30;16.70;;;8.13;;
22770;SDS011;11552;50.786;4.332;2022-10-19T09:56:59;21.70;;;8.52;;
22770;SDS011;11552;50.786;4.332;2022-10-19T09:59:27;15.50;;;7.68;;
22770;SDS011;11552;50.786;4.332;2022-10-19T10:04:30;15.85;;;8.60;;
22770;SDS011;11552;50.786;4.332;2022-10-19T10:06:56;13.98;;;8.25;;
22770;SDS011;11552;50.786;4.332;2022-10-19T10:09:24;14.85;;;8.30;;
22770;SDS011;11552;50.786;4.332;2022-10-19T10:11:53;17.98;;;9.02;;
22770;SDS011;11552;50.786;4.332;2022-10-19T10:16:56;15.63;;;8.70;;
22770;SDS011;11552;50.786;4.332;2022-10-19T10:19:31;18.45;;;9.43;;
22770;SDS011;11552;50.786;4.332;2022-10-19T10:21:59;11.90;;;8.90;;
22770;SDS011;11552;50.786;4.332;2022-10-19T10:24:29;15.55;;;10.55;;
22770;SDS011;11552;50.786;4.332;2022-10-19T10:26:57;17.85;;;10.20;;
22770;SDS011;11552;50.786;4.332;2022-10-19T10:29:26;16.70;;;9.90;;
22770;SDS011;11552;50.786;4.332;2022-10-19T10:32:02;18.90;;;10.95;;
22770;SDS011;11552;50.786;4.332;2022-10-19T10:37:06;18.95;;;11.15;;
22770;SDS011;11552;50.786;4.332;2022-10-19T10:39:46;15.35;;;10.50;;
22770;SDS011;11552;50.786;4.332;2022-10-19T10:42:21;14.82;;;10.20;;
22770;SDS011;11552;50.786;4.332;2022-10-19T10:45:15;16.08;;;10.85;;
22770;SDS011;11552;50.786;4.332;2022-10-19T10:47:44;16.65;;;10.88;;
22770;SDS011;11552;50.786;4.332;2022-10-19T10:50:16;15.20;;;10.50;;
22770;SDS011;11552;50.786;4.332;2022-10-19T10:53:02;18.45;;;10.98;;
22770;SDS011;11552;50.786;4.332;2022-10-19T10:55:30;19.35;;;11.57;;
22770;SDS011;11552;50.786;4.332;2022-10-19T10:58:04;17.95;;;12.00;;
22770;SDS011;11552;50.786;4.332;2022-10-19T11:00:36;14.93;;;10.88;;
22770;SDS011;11552;50.786;4.332;2022-10-19T11:06:00;19.63;;;11.07;;
22770;SDS011;11552;50.786;4.332;2022-10-19T11:11:22;20.27;;;11.25;;
22770;SDS011;11552;50.786;4.332;2022-10-19T11:13:58;14.75;;;10.32;;
22770;SDS011;11552;50.786;4.332;2022-10-19T11:21:58;16.65;;;10.93;;
22770;SDS011;11552;50.786;4.332;2022-10-19T11:24:41;17.83;;;11.05;;
22770;SDS011;11552;50.786;4.332;2022-10-19T11:27:31;16.23;;;10.77;;
22770;SDS011;11552;50.786;4.332;2022-10-19T11:32:37;21.05;;;10.65;;
22770;SDS011;11552;50.786;4.332;2022-10-19T11:35:13;18.48;;;10.15;;
22770;SDS011;11552;50.786;4.332;2022-10-19T11:48:42;16.60;;;10.48;;
22770;SDS011;11552;50.786;4.332;2022-10-19T11:56:56;19.35;;;10.60;;
22770;SDS011;11552;50.786;4.332;2022-10-19T12:10:39;25.75;;;11.05;;
22770;SDS011;11552;50.786;4.332;2022-10-19T12:13:02;19.17;;;9.75;;
22770;SDS011;11552;50.786;4.332;2022-10-19T12:23:55;15.82;;;9.45;;
22770;SDS011;11552;50.786;4.332;2022-10-19T12:26:22;15.75;;;10.10;;
22770;SDS011;11552;50.786;4.332;2022-10-19T12:28:53;17.92;;;10.40;;
22770;SDS011;11552;50.786;4.332;2022-10-19T12:31:23;24.58;;;11.77;;
22770;SDS011;11552;50.786;4.332;2022-10-19T12:33:58;17.92;;;10.35;;
22770;SDS011;11552;50.786;4.332;2022-10-19T12:36:48;17.80;;;10.20;;
22770;SDS011;11552;50.786;4.332;2022-10-19T12:39:40;19.27;;;10.18;;
22770;SDS011;11552;50.786;4.332;2022-10-19T12:49:51;15.10;;;9.13;;
22770;SDS011;11552;50.786;4.332;2022-10-19T12:55:08;16.50;;;9.00;;
22770;SDS011;11552;50.786;4.332;2022-10-19T12:57:54;37.28;;;9.80;;
22770;SDS011;11552;50.786;4.332;2022-10-19T13:00:24;16.42;;;8.43;;
22770;SDS011;11552;50.786;4.332;2022-10-19T13:03:02;12.02;;;8.20;;
22770;SDS011;11552;50.786;4.332;2022-10-19T13:05:31;19.58;;;8.13;;
22770;SDS011;11552;50.786;4.332;2022-10-19T13:08:00;20.17;;;9.13;;
22770;SDS011;11552;50.786;4.332;2022-10-19T13:10:27;14.00;;;9.10;;
22770;SDS011;11552;50.786;4.332;2022-10-19T13:12:55;20.77;;;9.68;;
22770;SDS011;11552;50.786;4.332;2022-10-19T13:18:01;14.15;;;9.20;;
22770;SDS011;11552;50.786;4.332;2022-10-19T13:41:25;15.80;;;9.07;;
22770;SDS011;11552;50.786;4.332;2022-10-19T13:49:27;16.80;;;8.70;;
22770;SDS011;11552;50.786;4.332;2022-10-19T13:52:09;21.20;;;9.82;;
22770;SDS011;11552;50.786;4.332;2022-10-19T14:03:33;14.88;;;7.82;;
22770;SDS011;11552;50.786;4.332;2022-10-19T14:06:21;25.38;;;8.60;;
22770;SDS011;11552;50.786;4.332;2022-10-19T14:09:18;36.83;;;9.98;;
22770;SDS011;11552;50.786;4.332;2022-10-19T14:12:27;16.55;;;8.32;;
22770;SDS011;11552;50.786;4.332;2022-10-19T14:14:55;15.65;;;8.20;;
22770;SDS011;11552;50.786;4.332;2022-10-19T14:17:31;32.30;;;8.70;;
22770;SDS011;11552;50.786;4.332;2022-10-19T14:22:57;13.48;;;8.07;;
22770;SDS011;11552;50.786;4.332;2022-10-19T14:25:41;10.30;;;7.20;;
22770;SDS011;11552;50.786;4.332;2022-10-19T14:28:18;12.32;;;7.70;;
22770;SDS011;11552;50.786;4.332;2022-10-19T14:30:52;13.35;;;8.05;;
22770;SDS011;11552;50.786;4.332;2022-10-19T14:33:26;15.18;;;8.20;;
22770;SDS011;11552;50.786;4.332;2022-10-19T14:35:53;16.65;;;8.25;;
22770;SDS011;11552;50.786;4.332;2022-10-19T14:38:25;13.30;;;8.18;;
22770;SDS011;11552;50.786;4.332;2022-10-19T14:40:52;12.70;;;7.75;;
22770;SDS011;11552;50.786;4.332;2022-10-19T14:43:20;12.07;;;9.20;;
22770;SDS011;11552;50.786;4.332;2022-10-19T14:48:28;16.20;;;9.63;;
22770;SDS011;11552;50.786;4.332;2022-10-19T14:50:55;16.38;;;10.38;;
22770;SDS011;11552;50.786;4.332;2022-10-19T14:55:56;15.45;;;10.18;;
22770;SDS011;11552;50.786;4.332;2022-10-19T15:01:56;15.88;;;10.40;;
22770;SDS011;11552;50.786;4.332;2022-10-19T15:04:25;14.95;;;10.52;;
22770;SDS011;11552;50.786;4.332;2022-10-19T15:06:58;15.20;;;10.02;;
22770;SDS011;11552;50.786;4.332;2022-10-19T15:09:34;14.38;;;10.00;;
22770;SDS011;11552;50.786;4.332;2022-10-19T15:12:08;14.30;;;10.40;;
22770;SDS011;11552;50.786;4.332;2022-10-19T15:14:39;17.60;;;10.32;;
22770;SDS011;11552;50.786;4.332;2022-10-19T15:17:19;19.60;;;10.95;;
22770;SDS011;11552;50.786;4.332;2022-10-19T15:19:53;16.20;;;10.32;;
22770;SDS011;11552;50.786;4.332;2022-10-19T15:22:35;17.08;;;11.27;;
22770;SDS011;11552;50.786;4.332;2022-10-19T15:27:36;16.98;;;10.95;;
22770;SDS011;11552;50.786;4.332;2022-10-19T15:32:41;16.48;;;11.32;;
22770;SDS011;11552;50.786;4.332;2022-10-19T15:35:11;16.77;;;10.45;;
22770;SDS011;11552;50.786;4.332;2022-10-19T15:37:50;17.45;;;11.77;;
22770;SDS011;11552;50.786;4.332;2022-10-19T15:40:26;15.10;;;10.57;;
22770;SDS011;11552;50.786;4.332;2022-10-19T15:43:00;18.15;;;11.00;;
22770;SDS011;11552;50.786;4.332;2022-10-19T15:48:44;19.80;;;11.85;;
22770;SDS011;11552;50.786;4.332;2022-10-19T15:56:25;16.17;;;11.50;;
22770;SDS011;11552;50.786;4.332;2022-10-19T15:58:54;17.13;;;11.70;;
22770;SDS011;11552;50.786;4.332;2022-10-19T16:01:22;19.80;;;14.48;;
22770;SDS011;11552;50.786;4.332;2022-10-19T16:03:50;20.65;;;12.45;;
22770;SDS011;11552;50.786;4.332;2022-10-19T16:06:16;18.10;;;12.35;;
22770;SDS011;11552;50.786;4.332;2022-10-19T16:08:42;20.25;;;13.15;;
22770;SDS011;11552;50.786;4.332;2022-10-19T16:11:13;18.05;;;13.38;;
22770;SDS011;11552;50.786;4.332;2022-10-19T16:13:41;22.88;;;12.98;;
22770;SDS011;11552;50.786;4.332;2022-10-19T16:16:07;19.38;;;12.98;;
22770;SDS011;11552;50.786;4.332;2022-10-19T16:18:36;18.75;;;13.23;;
22770;SDS011;11552;50.786;4.332;2022-10-19T16:21:02;25.25;;;15.50;;
22770;SDS011;11552;50.786;4.332;2022-10-19T16:23:27;19.17;;;13.77;;
22770;SDS011;11552;50.786;4.332;2022-10-19T16:25:54;18.98;;;14.63;;
22770;SDS011;11552;50.786;4.332;2022-10-19T16:28:20;20.23;;;13.93;;
22770;SDS011;11552;50.786;4.332;2022-10-19T16:30:52;19.77;;;14.55;;
22770;SDS011;11552;50.786;4.332;2022-10-19T16:33:19;21.40;;;16.15;;
22770;SDS011;11552;50.786;4.332;2022-10-19T16:35:45;21.30;;;15.32;;
22770;SDS011;11552;50.786;4.332;2022-10-19T16:38:11;22.65;;;17.02;;
22770;SDS011;11552;50.786;4.332;2022-10-19T16:40:36;23.20;;;16.38;;
22770;SDS011;11552;50.786;4.332;2022-10-19T16:43:02;25.70;;;16.60;;
22770;SDS011;11552;50.786;4.332;2022-10-19T16:45:28;21.95;;;17.48;;
22770;SDS011;11552;50.786;4.332;2022-10-19T16:47:54;21.83;;;16.58;;
22770;SDS011;11552;50.786;4.332;2022-10-19T16:50:20;25.50;;;17.63;;
22770;SDS011;11552;50.786;4.332;2022-10-19T16:52:46;24.52;;;17.63;;
22770;SDS011;11552;50.786;4.332;2022-10-19T16:55:12;24.75;;;17.38;;
22770;SDS011;11552;50.786;4.332;2022-10-19T16:57:38;26.13;;;17.77;;
22770;SDS011;11552;50.786;4.332;2022-10-19T17:02:26;24.35;;;17.85;;
22770;SDS011;11552;50.786;4.332;2022-10-19T17:04:52;22.38;;;18.08;;
22770;SDS011;11552;50.786;4.332;2022-10-19T17:07:18;24.67;;;18.42;;
22770;SDS011;11552;50.786;4.332;2022-10-19T17:09:43;25.48;;;18.20;;
22770;SDS011;11552;50.786;4.332;2022-10-19T17:12:09;23.23;;;18.02;;
22770;SDS011;11552;50.786;4.332;2022-10-19T17:14:36;26.15;;;19.27;;
22770;SDS011;11552;50.786;4.332;2022-10-19T17:17:03;23.65;;;18.67;;
22770;SDS011;11552;50.786;4.332;2022-10-19T17:19:29;23.77;;;18.27;;
22770;SDS011;11552;50.786;4.332;2022-10-19T17:21:55;23.33;;;19.30;;
22770;SDS011;11552;50.786;4.332;2022-10-19T17:24:21;24.77;;;19.20;;
22770;SDS011;11552;50.786;4.332;2022-10-19T17:26:48;23.90;;;19.42;;
22770;SDS011;11552;50.786;4.332;2022-10-19T17:29:15;23.83;;;19.35;;
22770;SDS011;11552;50.786;4.332;2022-10-19T17:31:40;23.73;;;19.60;;
22770;SDS011;11552;50.786;4.332;2022-10-19T17:34:06;22.83;;;19.33;;
22770;SDS011;11552;50.786;4.332;2022-10-19T17:36:34;22.95;;;20.20;;
22770;SDS011;11552;50.786;4.332;2022-10-19T17:39:04;28.75;;;20.42;;
22770;SDS011;11552;50.786;4.332;2022-10-19T17:41:32;27.83;;;20.10;;